Time;durP1;ratioP1;P1;durP2;ratioP2;P2;SDS_P1;SDS_P2;PMS_P1;PMS_P2;Temp;Humidity;BMP_temperature;BMP_pressure;BME280_temperature;BME280_humidity;BME280_pressure;Samples;Min_cycle;Max_cycle;Signal;HPM_P1;HPM_P2
2023/12/04 00:01:35;;;;;;;31.47;14.23;;;-3.90;99.90;;;;;;5080576;28;20024;-72
2023/12/04 00:04:01;;;;;;;28.97;13.13;;;-4.00;97.30;;;;;;5080508;28;20088;-71
2023/12/04 00:06:27;;;;;;;27.70;13.30;;;-4.00;99.90;;;;;;5098359;28;20095;-70
2023/12/04 00:08:53;;;;;;;31.87;14.30;;;;;;;;;;5100809;28;20292;-71
2023/12/04 00:11:19;;;;;;;27.63;12.63;;;;;;;;;;5100837;28;20032;-70
2023/12/04 00:13:45;;;;;;;30.70;14.27;;;;;;;;;;5101119;28;20085;-71
2023/12/04 00:16:11;;;;;;;28.30;13.93;;;;;;;;;;5100831;28;20090;-71
2023/12/04 00:18:37;;;;;;;26.77;13.47;;;-3.90;99.90;;;;;;5101094;28;20024;-71
2023/12/04 00:21:03;;;;;;;26.47;12.57;;;;;;;;;;5100704;28;20320;-71
2023/12/04 00:23:29;;;;;;;23.97;12.07;;;;;;;;;;5100766;28;20036;-71
2023/12/04 00:25:55;;;;;;;30.07;12.93;;;-4.10;97.50;;;;;;5100711;28;20000;-70
2023/12/04 00:28:21;;;;;;;27.80;13.40;;;;;;;;;;5100849;28;20060;-71
2023/12/04 00:30:47;;;;;;;27.77;12.73;;;-3.90;99.90;;;;;;5098551;28;20047;-71
2023/12/04 00:33:12;;;;;;;28.53;13.73;;;-3.60;99.90;;;;;;5079736;28;20381;-71
2023/12/04 00:35:39;;;;;;;25.77;13.30;;;-4.10;99.90;;;;;;5080313;28;20025;-71
2023/12/04 00:38:05;;;;;;;27.17;13.33;;;-4.30;99.90;;;;;;5080504;28;20044;-71
2023/12/04 00:40:30;;;;;;;28.63;13.57;;;-4.10;99.90;;;;;;5080085;28;20021;-70
2023/12/04 00:42:56;;;;;;;30.50;14.53;;;-4.10;99.90;;;;;;5080118;28;20336;-71
2023/12/04 00:45:22;;;;;;;30.77;14.83;;;;;;;;;;5080041;28;20051;-72
2023/12/04 00:47:48;;;;;;;33.50;15.37;;;-4.00;99.90;;;;;;5079923;28;20027;-70
2023/12/04 00:50:14;;;;;;;33.27;14.73;;;;;;;;;;5079957;28;20035;-70
2023/12/04 00:52:40;;;;;;;32.43;14.47;;;;;;;;;;5080824;28;20046;-70
2023/12/04 00:55:06;;;;;;;30.53;15.13;;;-4.10;99.90;;;;;;5099111;28;20082;-71
2023/12/04 00:57:31;;;;;;;28.03;13.87;;;-3.90;99.90;;;;;;5099869;28;20020;-70
2023/12/04 00:59:57;;;;;;;28.13;14.43;;;-4.00;99.90;;;;;;5099934;28;20373;-71
2023/12/04 01:02:23;;;;;;;29.23;14.47;;;-3.90;99.90;;;;;;5100216;28;20393;-70
2023/12/04 01:04:48;;;;;;;31.40;14.90;;;-4.10;99.90;;;;;;5099966;28;20315;-71
2023/12/04 01:07:15;;;;;;;27.80;13.80;;;-4.20;99.90;;;;;;5093451;28;20032;-69
2023/12/04 01:09:40;;;;;;;28.67;13.63;;;-3.90;99.90;;;;;;5080515;28;20074;-70
2023/12/04 01:12:06;;;;;;;29.90;14.03;;;-3.90;99.90;;;;;;5079801;28;20028;-70
2023/12/04 01:14:32;;;;;;;30.37;14.20;;;-4.10;99.90;;;;;;5091223;28;20246;-72
2023/12/04 01:16:58;;;;;;;29.97;14.23;;;-4.20;99.90;;;;;;5099828;28;20387;-71
2023/12/04 01:19:24;;;;;;;29.67;15.10;;;;;;;;;;5098768;28;20028;-71
2023/12/04 01:21:50;;;;;;;31.57;14.33;;;;;;;;;;5099847;28;20268;-71
2023/12/04 01:24:16;;;;;;;32.93;14.70;;;-4.10;99.90;;;;;;5100371;28;20020;-73
2023/12/04 01:26:42;;;;;;;28.77;13.90;;;-4.10;99.90;;;;;;5099960;28;20215;-72
2023/12/04 01:29:07;;;;;;;29.83;14.63;;;-4.20;99.90;;;;;;5099937;28;20019;-72
2023/12/04 01:31:33;;;;;;;33.63;13.83;;;;;;;;;;5099822;28;20028;-71
2023/12/04 01:33:59;;;;;;;32.97;14.23;;;;;;;;;;5099725;28;20039;-70
2023/12/04 01:36:25;;;;;;;27.70;13.30;;;-4.40;99.90;;;;;;5100074;28;20027;-70
2023/12/04 01:38:51;;;;;;;27.67;13.73;;;;;;;;;;5099847;28;20035;-71
2023/12/04 01:41:17;;;;;;;29.40;14.37;;;-3.60;99.90;;;;;;5085892;28;20032;-71
2023/12/04 01:43:42;;;;;;;33.00;14.10;;;-3.60;99.90;;;;;;5101497;28;20069;-71
2023/12/04 01:46:09;;;;;;;30.20;13.93;;;-4.20;99.90;;;;;;5100576;28;20032;-71
2023/12/04 01:48:36;;;;;;;29.10;14.13;;;-4.20;99.90;;;;;;5103555;28;20016;-71
2023/12/04 01:51:07;;;;;;;30.37;14.33;;;-4.20;98.60;;;;;;5103464;28;20381;-71
2023/12/04 01:53:34;;;;;;;27.23;13.80;;;-4.30;99.90;;;;;;5092486;28;20052;-71
2023/12/04 01:56:00;;;;;;;29.47;13.70;;;;;;;;;;5083314;28;20021;-71
2023/12/04 01:58:26;;;;;;;25.60;12.57;;;-4.20;99.90;;;;;;5092765;28;20024;-71
2023/12/04 02:00:52;;;;;;;29.20;14.40;;;-4.30;99.90;;;;;;5103588;28;20028;-71
2023/12/04 02:03:18;;;;;;;27.40;13.10;;;;;;;;;;5101816;28;20382;-71
2023/12/04 02:05:47;;;;;;;30.20;13.60;;;-4.40;98.90;;;;;;5103068;28;20323;-70
2023/12/04 02:08:14;;;;;;;28.73;14.17;;;-4.50;99.90;;;;;;5103140;28;20095;-70
2023/12/04 02:10:40;;;;;;;29.63;14.53;;;;;;;;;;5103176;28;20027;-70
2023/12/04 02:13:06;;;;;;;29.23;14.00;;;-4.60;98.60;;;;;;5103013;28;20028;-70
2023/12/04 02:15:32;;;;;;;28.47;14.33;;;-4.60;99.00;;;;;;5101591;28;20343;-69
2023/12/04 02:17:58;;;;;;;27.27;13.40;;;-4.60;99.10;;;;;;5103216;28;20035;-69
2023/12/04 02:20:33;;;;;;;31.30;13.80;;;-4.00;99.60;;;;;;5102819;28;20027;-71
2023/12/04 02:22:59;;;;;;;28.37;14.00;;;-4.20;99.90;;;;;;5103009;28;20082;-71
2023/12/04 02:25:24;;;;;;;29.43;13.50;;;-4.80;99.90;;;;;;5101703;28;20081;-71
2023/12/04 02:27:53;;;;;;;27.97;14.20;;;-5.00;99.90;;;;;;5082697;28;20051;-70
2023/12/04 02:30:23;;;;;;;26.48;12.38;;;-4.60;99.20;;;;;;5081094;28;20082;-71
2023/12/04 02:32:49;;;;;;;24.57;12.10;;;-4.50;99.90;;;;;;5082490;28;20040;-71
2023/12/04 02:35:20;;;;;;;27.83;12.90;;;-4.80;99.90;;;;;;5082422;28;20059;-71
2023/12/04 02:37:47;;;;;;;25.80;12.73;;;-4.90;99.90;;;;;;5082586;28;20021;-70
2023/12/04 02:40:13;;;;;;;28.33;13.73;;;-4.60;99.90;;;;;;5081078;28;20024;-70
2023/12/04 02:42:39;;;;;;;28.33;12.83;;;-4.60;99.90;;;;;;5082292;28;20052;-69
2023/12/04 02:45:06;;;;;;;30.37;14.57;;;-4.70;99.90;;;;;;5082361;28;20025;-70
2023/12/04 02:47:31;;;;;;;29.30;14.57;;;-5.00;99.90;;;;;;5082373;28;20079;-70
2023/12/04 02:49:57;;;;;;;30.73;13.43;;;-4.60;99.90;;;;;;5082397;28;20032;-70
2023/12/04 02:52:23;;;;;;;27.80;14.17;;;-4.50;99.90;;;;;;5082099;28;20016;-70
2023/12/04 02:54:49;;;;;;;31.17;13.60;;;-4.80;99.90;;;;;;5081530;28;20024;-69
2023/12/04 02:57:14;;;;;;;27.83;12.70;;;-4.70;99.40;;;;;;5082176;28;20370;-70
2023/12/04 02:59:40;;;;;;;31.53;14.57;;;;;;;;;;5081703;28;20112;-70
2023/12/04 03:02:06;;;;;;;29.17;14.27;;;-4.10;99.90;;;;;;5081962;28;20020;-68
2023/12/04 03:04:32;;;;;;;29.83;14.43;;;-4.60;99.90;;;;;;5082490;28;20033;-68
2023/12/04 03:06:58;;;;;;;34.37;14.77;;;-4.80;99.90;;;;;;5083132;28;20020;-68
2023/12/04 03:09:23;;;;;;;32.33;16.50;;;-4.40;99.90;;;;;;5082792;28;20070;-68
2023/12/04 03:11:49;;;;;;;30.77;14.67;;;-4.40;99.90;;;;;;5082213;28;20028;-68
2023/12/04 03:14:15;;;;;;;30.23;13.50;;;-4.40;99.90;;;;;;5081902;28;20115;-68
2023/12/04 03:16:40;;;;;;;29.03;14.47;;;-4.50;99.90;;;;;;5082176;28;20078;-67
2023/12/04 03:19:06;;;;;;;28.33;13.67;;;-4.00;99.90;;;;;;5096718;28;20308;-68
2023/12/04 03:21:32;;;;;;;27.73;12.87;;;-4.20;99.90;;;;;;5101700;28;20052;-68
2023/12/04 03:23:57;;;;;;;25.17;12.20;;;-4.50;99.90;;;;;;5101954;28;20089;-68
2023/12/04 03:26:23;;;;;;;27.80;13.50;;;-4.50;99.90;;;;;;5101965;28;20047;-68
2023/12/04 03:28:48;;;;;;;31.10;14.63;;;-4.60;99.90;;;;;;5101645;28;20330;-69
2023/12/04 03:31:14;;;;;;;30.40;14.03;;;-4.40;99.90;;;;;;5101917;28;20016;-69
2023/12/04 03:33:40;;;;;;;35.00;16.17;;;-4.80;99.90;;;;;;5101628;28;20042;-69
2023/12/04 03:36:07;;;;;;;40.83;16.70;;;-4.60;99.90;;;;;;5082295;28;20043;-68
2023/12/04 03:38:32;;;;;;;36.03;17.00;;;-4.70;99.90;;;;;;5081837;28;20051;-68
2023/12/04 03:40:58;;;;;;;39.63;18.80;;;-4.30;99.90;;;;;;5081375;28;20321;-67
2023/12/04 03:43:24;;;;;;;42.53;20.13;;;-4.50;99.90;;;;;;5081220;28;20087;-68
2023/12/04 03:45:49;;;;;;;36.30;17.43;;;-4.60;99.80;;;;;;5097797;28;20308;-68
2023/12/04 03:48:15;;;;;;;47.47;21.50;;;-4.40;99.90;;;;;;5101444;28;20024;-70
2023/12/04 03:50:41;;;;;;;48.40;20.63;;;-4.60;99.90;;;;;;5101305;28;20167;-70
2023/12/04 03:53:07;;;;;;;37.97;16.83;;;;;;;;;;5100144;28;20046;-70
2023/12/04 03:55:32;;;;;;;30.67;15.30;;;-4.70;99.90;;;;;;5114060;28;20020;-68
2023/12/04 03:57:59;;;;;;;34.37;16.60;;;-4.30;99.90;;;;;;5121799;28;20054;-71
2023/12/04 04:00:24;;;;;;;33.33;14.63;;;-4.30;99.90;;;;;;5121682;28;20027;-70
2023/12/04 04:02:50;;;;;;;28.43;13.60;;;-4.50;99.90;;;;;;5121316;28;20324;-70
2023/12/04 04:05:16;;;;;;;28.33;14.33;;;;;;;;;;5121430;28;20028;-70
2023/12/04 04:07:42;;;;;;;27.23;13.57;;;-4.50;99.90;;;;;;5120488;28;20038;-70
2023/12/04 04:10:08;;;;;;;30.57;14.13;;;-4.70;99.90;;;;;;5121208;28;20206;-70
2023/12/04 04:12:34;;;;;;;28.00;13.87;;;-4.70;99.90;;;;;;5121333;28;20095;-70
2023/12/04 04:15:00;;;;;;;26.87;12.63;;;-4.70;99.90;;;;;;5121060;28;20307;-70
2023/12/04 04:17:26;;;;;;;27.43;12.83;;;-4.60;99.90;;;;;;5121228;28;20129;-70
2023/12/04 04:19:55;;;;;;;30.20;13.63;;;-4.70;99.90;;;;;;5121064;28;20110;-70
2023/12/04 04:22:22;;;;;;;30.63;14.60;;;-4.80;99.90;;;;;;5119534;28;20373;-70
2023/12/04 04:24:49;;;;;;;25.70;13.27;;;-4.90;99.90;;;;;;5121149;28;20087;-70
2023/12/04 04:27:15;;;;;;;30.43;14.30;;;-5.10;99.90;;;;;;5121105;28;20023;-69
2023/12/04 04:29:41;;;;;;;32.93;14.93;;;-4.70;99.90;;;;;;5120947;28;20024;-70
2023/12/04 04:32:07;;;;;;;37.13;16.03;;;;;;;;;;5120893;28;20024;-70
2023/12/04 04:34:32;;;;;;;33.83;16.00;;;-5.60;99.90;;;;;;5120707;28;20042;-70
2023/12/04 04:36:58;;;;;;;38.73;17.50;;;-5.60;99.90;;;;;;5120534;28;20024;-70
2023/12/04 04:39:24;;;;;;;46.03;19.03;;;;;;;;;;5120643;28;20034;-69
2023/12/04 04:41:50;;;;;;;53.00;21.53;;;;;;;;;;5120655;28;20031;-70
2023/12/04 04:44:16;;;;;;;53.70;20.83;;;;;;;;;;5120761;28;20095;-71
2023/12/04 04:46:42;;;;;;;57.83;22.47;;;-5.40;99.90;;;;;;5120798;28;20051;-68
2023/12/04 04:49:08;;;;;;;54.03;23.97;;;;;;;;;;5120743;28;20335;-66
2023/12/04 04:51:34;;;;;;;68.10;27.33;;;-5.40;97.20;;;;;;5111218;28;20311;-68
2023/12/04 04:54:01;;;;;;;63.23;25.50;;;-5.50;97.30;;;;;;5120329;28;20031;-69
2023/12/04 04:56:26;;;;;;;60.93;25.30;;;-6.00;99.90;;;;;;5101427;28;20032;-69
2023/12/04 04:58:53;;;;;;;52.03;21.87;;;;;;;;;;5100060;28;20039;-67
2023/12/04 05:01:18;;;;;;;49.60;22.53;;;;;;;;;;5100112;28;20038;-69
2023/12/04 05:03:44;;;;;;;49.40;20.97;;;;;;;;;;5098791;28;20260;-72
2023/12/04 05:06:11;;;;;;;45.67;21.33;;;;;;;;;;5100264;28;20060;-72
2023/12/04 05:08:36;;;;;;;60.60;23.00;;;-5.80;99.90;;;;;;5100089;28;20032;-71
2023/12/04 05:11:02;;;;;;;49.33;19.93;;;-5.70;99.90;;;;;;5098852;28;20095;-72
2023/12/04 05:13:28;;;;;;;44.73;20.07;;;;;;;;;;5100074;28;20107;-73
2023/12/04 05:15:54;;;;;;;54.47;20.60;;;;;;;;;;5100417;28;20126;-72
2023/12/04 05:18:20;;;;;;;56.13;21.67;;;;;;;;;;5101420;28;20113;-72
2023/12/04 05:20:46;;;;;;;45.00;19.27;;;;;;;;;;5104019;28;20579;-72
2023/12/04 05:23:12;;;;;;;51.47;20.97;;;-5.80;99.90;;;;;;5103873;28;20044;-73
2023/12/04 05:25:37;;;;;;;52.77;19.50;;;-5.70;99.90;;;;;;5104291;28;20032;-72
2023/12/04 05:28:04;;;;;;;49.27;18.17;;;-5.70;99.30;;;;;;5103741;28;20042;-71
2023/12/04 05:30:30;;;;;;;34.43;16.57;;;;;;;;;;5103925;28;20020;-71
2023/12/04 05:32:56;;;;;;;33.10;15.20;;;;;;;;;;5103670;28;20358;-73
2023/12/04 05:35:22;;;;;;;32.57;15.90;;;-5.80;99.90;;;;;;5103767;28;20019;-70
2023/12/04 05:37:48;;;;;;;36.43;16.13;;;-5.70;99.90;;;;;;5103521;28;20093;-71
2023/12/04 05:40:14;;;;;;;29.70;13.53;;;;;;;;;;5103539;28;20039;-72
2023/12/04 05:42:40;;;;;;;29.27;12.93;;;;;;;;;;5101469;28;20327;-73
2023/12/04 05:45:08;;;;;;;26.43;12.40;;;-5.70;99.90;;;;;;5124786;28;20335;-73
2023/12/04 05:47:34;;;;;;;27.00;13.20;;;;;;;;;;5124101;28;20031;-70
2023/12/04 05:50:00;;;;;;;20.73;11.33;;;-5.50;99.80;;;;;;5123931;28;20266;-68
2023/12/04 05:52:26;;;;;;;25.93;13.67;;;;;;;;;;5123088;28;20019;-68
2023/12/04 05:54:52;;;;;;;37.97;16.97;;;-5.60;99.90;;;;;;5122949;28;20125;-67
2023/12/04 05:57:18;;;;;;;53.50;22.47;;;;;;;;;;5123063;28;20016;-67
2023/12/04 05:59:44;;;;;;;52.33;21.87;;;-5.00;99.90;;;;;;5123094;28;20343;-70
2023/12/04 06:02:10;;;;;;;53.97;21.97;;;;;;;;;;5123570;28;20030;-70
2023/12/04 06:04:36;;;;;;;52.80;22.47;;;-5.30;99.90;;;;;;5123657;28;20023;-70
2023/12/04 06:07:02;;;;;;;44.30;20.13;;;;;;;;;;5123963;28;20107;-70
2023/12/04 06:09:28;;;;;;;46.23;19.20;;;;;;;;;;5123518;27;20019;-70
2023/12/04 06:11:54;;;;;;;46.33;19.83;;;;;;;;;;5123229;27;20046;-70
2023/12/04 06:14:20;;;;;;;52.57;19.53;;;;;;;;;;5121852;28;20031;-70
2023/12/04 06:16:46;;;;;;;48.90;19.77;;;-5.70;99.90;;;;;;5123193;28;20046;-70
2023/12/04 06:19:12;;;;;;;36.07;17.27;;;;;;;;;;5123169;28;20355;-72
2023/12/04 06:21:38;;;;;;;43.97;19.57;;;-5.60;99.90;;;;;;5122858;28;20078;-71
2023/12/04 06:24:05;;;;;;;37.83;16.93;;;;;;;;;;5123062;28;20039;-72
2023/12/04 06:26:34;;;;;;;40.87;16.53;;;-5.80;99.60;;;;;;5123107;28;20092;-72
2023/12/04 06:29:00;;;;;;;41.10;16.92;;;;;;;;;;5121495;28;20062;-68
2023/12/04 06:31:26;;;;;;;28.87;14.10;;;;;;;;;;5113526;28;20072;-73
2023/12/04 06:33:55;;;;;;;31.40;13.77;;;-5.80;99.90;;;;;;5122748;28;20019;-73
2023/12/04 06:36:21;;;;;;;30.25;12.55;;;-5.60;99.90;;;;;;5121961;28;20050;-75
2023/12/04 06:38:48;;;;;;;26.30;11.40;;;;;;;;;;5102821;28;20038;-72
2023/12/04 06:41:14;;;;;;;29.43;12.00;;;;;;;;;;5102237;28;20030;-73
2023/12/04 06:43:40;;;;;;;25.57;11.23;;;;;;;;;;5100104;28;20227;-72
2023/12/04 06:46:07;;;;;;;44.93;17.23;;;-5.50;99.90;;;;;;5101367;28;20035;-72
2023/12/04 06:48:33;;;;;;;47.53;20.70;;;;;;;;;;5101401;28;20339;-72
2023/12/04 06:50:59;;;;;;;60.10;26.10;;;-5.60;99.90;;;;;;5098430;28;20122;-72
2023/12/04 06:53:25;;;;;;;49.50;20.57;;;;;;;;;;5084821;28;20075;-72
2023/12/04 06:55:51;;;;;;;60.20;24.37;;;;;;;;;;5080075;28;20056;-72
2023/12/04 06:58:17;;;;;;;60.90;24.23;;;;;;;;;;5099669;28;20024;-72
2023/12/04 07:00:42;;;;;;;58.20;23.87;;;-5.20;99.90;;;;;;5099524;28;20292;-72
2023/12/04 07:03:08;;;;;;;56.57;24.73;;;;;;;;;;5108852;28;20032;-72
2023/12/04 07:05:35;;;;;;;56.27;24.37;;;;;;;;;;5102221;28;20024;-71
2023/12/04 07:08:01;;;;;;;59.07;23.40;;;;;;;;;;5101772;28;20028;-73
2023/12/04 07:10:27;;;;;;;57.40;22.07;;;;;;;;;;5100557;28;20051;-72
2023/12/04 07:12:52;;;;;;;49.40;20.43;;;-5.10;99.90;;;;;;5101721;28;20035;-72
2023/12/04 07:15:18;;;;;;;45.10;18.70;;;-5.10;99.90;;;;;;5090736;28;20033;-71
2023/12/04 07:17:44;;;;;;;42.77;16.30;;;;;;;;;;5088044;28;20027;-73
2023/12/04 07:20:11;;;;;;;32.83;15.23;;;-5.20;97.80;;;;;;5121967;28;20340;-73
2023/12/04 07:22:37;;;;;;;55.43;18.17;;;-5.00;99.90;;;;;;5122003;28;20116;-72
2023/12/04 07:25:03;;;;;;;101.60;33.90;;;-5.10;99.90;;;;;;5121986;28;20298;-72
2023/12/04 07:27:29;;;;;;;96.80;35.03;;;;;;;;;;5122127;28;20027;-72
2023/12/04 07:29:55;;;;;;;84.53;32.47;;;;;;;;;;5122108;28;20026;-72
2023/12/04 07:32:21;;;;;;;51.33;19.63;;;-5.00;99.90;;;;;;5121898;28;20027;-71
2023/12/04 07:34:47;;;;;;;30.40;14.30;;;;;;;;;;5111885;27;20098;-72
2023/12/04 07:37:13;;;;;;;30.73;13.17;;;;;;;;;;5121624;28;20023;-72
2023/12/04 07:39:38;;;;;;;23.27;10.80;;;-4.80;99.90;;;;;;5121830;28;20043;-72
2023/12/04 07:42:05;;;;;;;42.03;18.37;;;;;;;;;;5121503;28;20099;-71
2023/12/04 07:44:30;;;;;;;33.17;15.63;;;-4.40;99.90;;;;;;5121334;28;20207;-71
2023/12/04 07:46:57;;;;;;;52.10;22.80;;;-4.30;99.90;;;;;;5121355;28;20028;-72
2023/12/04 07:49:23;;;;;;;65.53;23.53;;;;;;;;;;5121304;28;20098;-72
2023/12/04 07:51:49;;;;;;;55.73;24.37;;;;;;;;;;5121350;28;20072;-72
2023/12/04 07:54:15;;;;;;;62.23;26.13;;;;;;;;;;5103206;28;20039;-71
2023/12/04 07:56:42;;;;;;;52.90;21.50;;;-3.50;99.90;;;;;;5120936;28;20129;-71
2023/12/04 07:59:08;;;;;;;73.77;29.13;;;;;;;;;;5121615;28;20612;-71
2023/12/04 08:01:34;;;;;;;67.77;28.23;;;;;;;;;;5120149;28;20024;-71
2023/12/04 08:04:00;;;;;;;94.20;39.10;;;;;;;;;;5120998;28;20093;-71
2023/12/04 08:06:26;;;;;;;74.40;32.27;;;-3.00;99.90;;;;;;5115617;28;20304;-71
2023/12/04 08:08:52;;;;;;;65.33;28.83;;;-2.70;99.90;;;;;;5100695;28;20055;-71
2023/12/04 08:11:18;;;;;;;56.70;26.83;;;;;;;;;;5100608;28;20062;-71
2023/12/04 08:13:47;;;;;;;58.58;26.83;;;-2.40;96.90;;;;;;5100171;28;20239;-72
2023/12/04 08:16:19;;;;;;;59.13;26.13;;;-2.30;96.70;;;;;;5100704;28;20043;-71
2023/12/04 08:18:45;;;;;;;43.40;18.52;;;;;;;;;;5100509;28;20035;-71
2023/12/04 08:21:11;;;;;;;29.65;16.27;;;-2.00;99.90;;;;;;5099752;28;20365;-72
2023/12/04 08:23:37;;;;;;;27.23;13.90;;;-1.80;99.90;;;;;;5100017;28;20028;-71
2023/12/04 08:26:03;;;;;;;25.40;12.77;;;-1.60;99.90;;;;;;5100086;28;20023;-71
2023/12/04 08:28:30;;;;;;;27.70;14.50;;;;;;;;;;5099638;28;20024;-73
2023/12/04 08:30:56;;;;;;;22.35;11.63;;;;;;;;;;5099393;28;20090;-71
2023/12/04 08:33:22;;;;;;;19.63;9.88;;;-0.90;99.90;;;;;;5098469;28;20028;-71
2023/12/04 08:35:48;;;;;;;18.27;10.13;;;;;;;;;;5100209;28;20145;-71
2023/12/04 08:38:14;;;;;;;17.98;10.50;;;;;;;;;;5100021;28;20023;-72
2023/12/04 08:40:40;;;;;;;18.30;10.63;;;;;;;;;;5100294;28;20118;-72
2023/12/04 08:43:06;;;;;;;10.88;7.10;;;-0.60;98.70;;;;;;5100451;28;20103;-72
2023/12/04 08:45:31;;;;;;;16.75;9.30;;;-0.70;99.90;;;;;;5100444;28;20225;-72
2023/12/04 08:47:57;;;;;;;15.15;8.80;;;-0.80;99.90;;;;;;5104298;28;20032;-71
2023/12/04 08:50:25;;;;;;;15.80;7.70;;;-0.20;99.90;;;;;;5119700;28;20072;-72
2023/12/04 08:52:51;;;;;;;15.20;7.35;;;-0.50;93.60;;;;;;5116044;28;20027;-72
2023/12/04 08:55:17;;;;;;;14.63;7.97;;;-0.50;93.40;;;;;;5123845;28;20030;-72
2023/12/04 08:57:43;;;;;;;17.27;9.23;;;-0.10;99.90;;;;;;5124725;28;20024;-72
2023/12/04 09:00:09;;;;;;;17.08;9.75;;;-0.30;92.50;;;;;;5124679;28;20028;-72
2023/12/04 09:02:35;;;;;;;14.68;8.18;;;-0.30;92.00;;;;;;5124882;28;20022;-73
2023/12/04 09:05:01;;;;;;;11.27;6.68;;;-0.20;91.60;;;;;;5123584;28;20023;-72
2023/12/04 09:07:26;;;;;;;10.65;5.60;;;-0.10;91.60;;;;;;5124065;28;20098;-72
2023/12/04 09:09:52;;;;;;;13.55;7.90;;;-0.10;99.90;;;;;;5125225;28;20204;-73
2023/12/04 09:12:18;;;;;;;15.10;7.85;;;0.00;91.30;;;;;;5125070;28;20303;-72
2023/12/04 09:14:43;;;;;;;6.00;3.33;;;0.20;99.90;;;;;;5124697;28;20059;-72
2023/12/04 09:17:10;;;;;;;12.90;7.15;;;0.10;99.90;;;;;;5124720;28;20055;-72
2023/12/04 09:19:36;;;;;;;10.15;4.88;;;0.10;99.90;;;;;;5124515;28;20024;-72
2023/12/04 09:22:02;;;;;;;10.20;6.30;;;0.20;90.00;;;;;;5124237;28;20374;-72
2023/12/04 09:24:28;;;;;;;12.73;7.85;;;0.20;90.00;;;;;;5124445;27;20027;-72
2023/12/04 09:26:55;;;;;;;12.30;6.70;;;0.20;90.00;;;;;;5103755;28;20032;-72
2023/12/04 09:29:23;;;;;;;11.30;6.55;;;0.30;89.10;;;;;;5104021;28;20115;-72
2023/12/04 09:31:50;;;;;;;11.43;6.70;;;0.40;89.30;;;;;;5103181;28;20043;-72
2023/12/04 09:34:17;;;;;;;12.25;7.03;;;0.40;86.90;;;;;;5103485;28;20051;-71
2023/12/04 09:36:43;;;;;;;15.52;7.80;;;0.40;86.00;;;;;;5102852;28;20086;-72
2023/12/04 09:39:10;;;;;;;11.73;6.78;;;0.40;85.30;;;;;;5095219;28;20189;-72
2023/12/04 09:41:38;;;;;;;10.55;6.85;;;0.50;85.80;;;;;;5103193;28;20046;-71
2023/12/04 09:44:05;;;;;;;11.77;6.88;;;0.50;86.40;;;;;;5102661;28;20048;-72
2023/12/04 09:46:31;;;;;;;15.60;7.28;;;0.70;86.20;;;;;;5103695;28;20020;-72
2023/12/04 09:48:58;;;;;;;11.23;6.72;;;0.70;85.30;;;;;;5103792;28;20043;-72
2023/12/04 09:51:25;;;;;;;11.27;6.60;;;0.70;83.80;;;;;;5102350;28;20047;-72
2023/12/04 09:53:52;;;;;;;9.40;6.38;;;1.50;82.90;;;;;;5103497;28;20380;-72
2023/12/04 09:56:19;;;;;;;9.43;6.35;;;0.80;82.60;;;;;;5103233;28;20057;-72
2023/12/04 09:58:49;;;;;;;8.45;4.90;;;0.90;82.60;;;;;;5103180;28;20028;-72
2023/12/04 10:01:15;;;;;;;8.50;5.38;;;0.90;81.20;;;;;;5103356;28;20028;-71
2023/12/04 10:03:42;;;;;;;11.77;5.80;;;0.90;81.10;;;;;;5103139;28;20227;-72
2023/12/04 10:06:08;;;;;;;9.32;5.80;;;1.00;80.70;;;;;;5103374;28;20065;-72
2023/12/04 10:08:34;;;;;;;8.27;5.13;;;1.00;78.50;;;;;;5102165;28;20036;-71
2023/12/04 10:11:00;;;;;;;9.50;5.55;;;1.00;78.60;;;;;;5103113;28;20020;-71
2023/12/04 10:13:27;;;;;;;11.73;5.93;;;1.10;78.70;;;;;;5103123;28;20197;-72
2023/12/04 10:15:53;;;;;;;10.32;6.03;;;;;;;;;;5102897;28;20308;-72
2023/12/04 10:18:30;;;;;;;8.80;5.05;;;0.90;76.70;;;;;;5102951;28;20028;-73
2023/12/04 10:20:56;;;;;;;9.48;5.75;;;1.00;94.70;;;;;;5102746;28;20082;-72
2023/12/04 10:23:23;;;;;;;7.55;5.00;;;1.50;94.50;;;;;;5102991;28;20083;-72
2023/12/04 10:25:52;;;;;;;10.60;4.80;;;1.30;93.40;;;;;;5103158;28;20048;-72
2023/12/04 10:28:18;;;;;;;;;;;1.30;73.70;;;;;;5103714;28;20020;-72
2023/12/04 10:30:45;;;;;;;8.68;5.20;;;1.40;93.50;;;;;;5102938;28;19907;-71
2023/12/04 10:33:13;;;;;;;5.63;3.03;;;1.40;93.60;;;;;;5102835;28;20043;-71
2023/12/04 10:35:39;;;;;;;7.10;4.13;;;1.60;93.40;;;;;;5102717;28;20093;-72
2023/12/04 10:38:06;;;;;;;5.80;3.45;;;1.60;93.00;;;;;;5102625;28;20201;-71
2023/12/04 10:40:34;;;;;;;10.40;4.90;;;1.80;93.00;;;;;;5102570;28;20324;-72
2023/12/04 10:43:23;;;;;;;11.50;5.72;;;1.70;92.40;;;;;;5102785;28;20027;-71
2023/12/04 10:45:50;;;;;;;4.82;2.97;;;1.80;92.30;;;;;;5102414;28;20339;-71
2023/12/04 10:48:18;;;;;;;6.28;4.00;;;1.60;92.00;;;;;;5102708;28;20032;-72
2023/12/04 10:50:47;;;;;;;9.70;5.30;;;1.70;69.60;;;;;;5102182;28;20020;-72
2023/12/04 10:53:15;;;;;;;8.90;5.47;;;1.70;91.90;;;;;;5102502;28;20097;-72
2023/12/04 10:55:41;;;;;;;8.43;5.83;;;1.70;69.20;;;;;;5102165;28;20016;-72
2023/12/04 10:58:26;;;;;;;7.82;5.07;;;1.70;69.10;;;;;;5102127;28;20085;-73
2023/12/04 11:00:54;;;;;;;10.88;5.53;;;1.80;69.10;;;;;;5102045;28;20024;-72
2023/12/04 11:03:34;;;;;;;6.55;4.50;;;1.90;68.90;;;;;;5101789;28;20032;-72
2023/12/04 11:06:01;;;;;;;9.57;5.47;;;2.00;69.20;;;;;;5100844;28;20016;-72
2023/12/04 11:08:36;;;;;;;7.97;5.30;;;2.10;68.90;;;;;;5101978;28;20028;-72
2023/12/04 11:11:08;;;;;;;10.48;5.72;;;2.20;68.70;;;;;;5101689;28;20278;-72
2023/12/04 11:13:37;;;;;;;9.18;5.30;;;2.20;68.00;;;;;;5101508;28;20036;-72
2023/12/04 11:16:27;;;;;;;9.73;5.50;;;2.30;67.70;;;;;;5101138;28;20080;-72
2023/12/04 11:19:20;;;;;;;9.57;5.95;;;1.10;66.60;;;;;;5100327;28;20251;-72
2023/12/04 11:21:46;;;;;;;13.82;6.28;;;2.40;90.60;;;;;;5101353;28;20060;-72
2023/12/04 11:24:12;;;;;;;9.68;6.15;;;2.80;90.70;;;;;;5101335;28;20023;-72
2023/12/04 11:26:40;;;;;;;8.70;4.93;;;2.40;90.70;;;;;;5100182;28;20095;-72
2023/12/04 11:29:08;;;;;;;9.95;6.35;;;2.50;67.40;;;;;;5101377;28;20020;-72
2023/12/04 11:31:35;;;;;;;10.70;6.50;;;2.50;91.10;;;;;;5101367;28;20081;-71
2023/12/04 11:34:04;;;;;;;11.75;6.80;;;2.60;67.70;;;;;;5101164;28;20340;-72
2023/12/04 11:36:30;;;;;;;12.52;7.65;;;2.80;67.40;;;;;;5100224;28;20062;-72
2023/12/04 11:38:59;;;;;;;12.32;6.80;;;2.90;67.10;;;;;;5101529;28;20032;-72
2023/12/04 11:41:25;;;;;;;7.43;4.20;;;3.10;67.20;;;;;;5101268;28;20376;-72
2023/12/04 11:43:51;;;;;;;15.13;7.03;;;3.20;67.00;;;;;;5101153;28;20125;-72
2023/12/04 11:46:25;;;;;;;11.88;7.22;;;3.30;66.40;;;;;;5101040;28;20016;-72
2023/12/04 11:48:55;;;;;;;17.27;6.60;;;3.30;66.40;;;;;;5101269;28;20039;-72
2023/12/04 11:51:39;;;;;;;11.95;7.30;;;3.40;66.20;;;;;;5101007;28;20024;-71
2023/12/04 11:54:08;;;;;;;15.38;8.05;;;3.50;65.70;;;;;;5101078;28;20040;-71
2023/12/04 11:56:34;;;;;;;11.52;6.70;;;3.50;65.40;;;;;;5101444;28;20044;-72
2023/12/04 11:59:04;;;;;;;11.88;7.15;;;3.60;66.00;;;;;;5100815;28;20083;-71
2023/12/04 12:01:36;;;;;;;10.02;6.75;;;3.80;70.90;;;;;;5100872;28;20083;-72
2023/12/04 12:04:05;;;;;;;9.10;5.55;;;3.90;72.40;;;;;;5100876;28;20032;-71
2023/12/04 12:06:31;;;;;;;26.92;12.30;;;3.90;76.20;;;;;;5100853;28;20031;-72
2023/12/04 12:08:57;;;;;;;29.10;12.90;;;4.20;67.80;;;;;;5100776;28;20227;-71
2023/12/04 12:11:24;;;;;;;15.73;9.13;;;3.90;75.30;;;;;;5100795;28;20047;-72
2023/12/04 12:13:50;;;;;;;12.70;7.88;;;;;;;;;;5100903;28;20028;-72
2023/12/04 12:16:18;;;;;;;12.05;7.05;;;4.20;62.80;;;;;;5100896;28;20031;-71
2023/12/04 12:18:44;;;;;;;14.10;7.40;;;4.50;71.80;;;;;;5100570;28;20049;-72
2023/12/04 12:21:10;;;;;;;12.18;7.57;;;4.40;62.90;;;;;;5100524;28;20285;-72
2023/12/04 12:23:35;;;;;;;10.98;7.38;;;4.60;79.30;;;;;;5100538;28;20215;-72
2023/12/04 12:26:01;;;;;;;11.60;7.10;;;;;;;;;;5100441;28;20020;-73
2023/12/04 12:28:29;;;;;;;12.45;8.07;;;5.50;74.40;;;;;;5099623;28;20039;-73
2023/12/04 12:30:55;;;;;;;14.98;8.32;;;5.70;72.30;;;;;;5100272;28;20399;-71
2023/12/04 12:33:20;;;;;;;21.88;10.98;;;6.70;73.00;;;;;;5100379;28;20062;-71
2023/12/04 12:35:47;;;;;;;12.85;8.15;;;6.60;72.70;;;;;;5100444;28;20047;-72
2023/12/04 12:38:14;;;;;;;13.80;9.15;;;7.70;69.90;;;;;;5100471;28;20019;-73
2023/12/04 12:40:40;;;;;;;10.85;7.32;;;7.20;67.20;;;;;;5100695;28;20035;-71
2023/12/04 12:43:07;;;;;;;11.63;8.70;;;7.90;66.80;;;;;;5099115;28;20087;-71
2023/12/04 12:45:50;;;;;;;10.35;7.72;;;8.10;67.80;;;;;;5100617;28;20028;-72
2023/12/04 12:48:17;;;;;;;10.93;7.75;;;7.60;67.30;;;;;;5100435;28;20091;-72
2023/12/04 12:50:43;;;;;;;12.75;8.68;;;8.40;55.10;;;;;;5100235;28;20024;-72
2023/12/04 12:53:11;;;;;;;13.40;8.27;;;8.60;53.10;;;;;;5100048;28;20094;-72
2023/12/04 12:55:44;;;;;;;10.77;7.60;;;9.00;51.40;;;;;;5100362;28;20104;-71
2023/12/04 12:58:10;;;;;;;9.13;7.10;;;9.60;50.10;;;;;;5100141;28;20052;-71